Anchorage/Lake Hood Seaplane Base, Alaska
Current Conditions -  °F | °C
As of 2:53 PM on Monday 22 Dec 2014 (Local Time) from PALH Reporting Station
Scattered Clouds Scattered Clouds  
Wind Chill: 25°   Ceiling: Unl
Heat Index: 25°   Visibility: 10mi
Dew Point: 22°   Wind: 0mph
Humidity: 88%   Direction: NA
Pressure: 29.77"   Gusts: NA
Location:  61.18°N, 149.97°W
Report Text: PALH 222353Z 00000KT 10SM SCT070 SCT100 M04/M06 A2977 RMK AO2 SLP083 T10391056 11022 21044 51006
Loading
Personal Weather Stations






























Interactive Weather Map New forecast layout! Learn more

10-Day Weather Forecast

Advertisements
Track Severe Weather on mobile